createdAt,value
2023-04-29T00:02:16.922Z,101589.56
2023-04-29T00:04:45.376Z,101591.00
2023-04-29T00:07:16.055Z,101595.00
2023-04-29T00:09:46.069Z,101591.06
2023-04-29T00:12:14.529Z,101594.69
2023-04-29T00:14:43.978Z,101593.84
2023-04-29T00:17:12.556Z,101601.22
2023-04-29T00:19:41.354Z,101594.44
2023-04-29T00:22:09.698Z,101599.00
2023-04-29T00:24:38.218Z,101608.94
2023-04-29T00:27:08.275Z,101598.13
2023-04-29T00:29:36.960Z,101610.25
2023-04-29T00:32:05.908Z,101612.78
2023-04-29T00:34:34.334Z,101606.94
2023-04-29T00:37:03.001Z,101610.69
2023-04-29T00:39:31.394Z,101609.66
2023-04-29T00:42:00.658Z,101619.63
2023-04-29T00:44:30.712Z,101615.50
2023-04-29T00:46:59.414Z,101627.47
2023-04-29T00:49:28.320Z,101633.63
2023-04-29T00:51:58.837Z,101634.81
2023-04-29T00:54:27.383Z,101639.84
2023-04-29T00:56:57.063Z,101631.28
2023-04-29T00:59:32.082Z,101640.69
2023-04-29T01:02:06.880Z,101640.16
2023-04-29T01:04:35.449Z,101645.22
2023-04-29T01:07:14.360Z,101645.13
2023-04-29T01:09:55.378Z,101644.00
2023-04-29T01:12:34.657Z,101648.97
2023-04-29T01:15:11.036Z,101652.88
2023-04-29T01:17:46.801Z,101656.69
2023-04-29T01:20:16.716Z,101657.38
2023-04-29T01:22:45.299Z,101652.50
2023-04-29T01:25:15.085Z,101657.38
2023-04-29T01:27:54.299Z,101660.56
2023-04-29T01:30:35.074Z,101665.53
2023-04-29T01:33:16.060Z,101665.28
2023-04-29T01:35:59.132Z,101674.00
2023-04-29T01:38:43.680Z,101666.81
2023-04-29T01:41:19.199Z,101673.41
2023-04-29T01:43:52.279Z,101681.63
2023-04-29T01:46:20.838Z,101687.50
2023-04-29T01:48:49.197Z,101689.84
2023-04-29T01:51:17.723Z,101689.31
2023-04-29T01:53:46.166Z,101689.84
2023-04-29T01:56:16.153Z,101689.38
2023-04-29T01:58:44.760Z,101689.47
2023-04-29T02:01:14.419Z,101675.88
2023-04-29T02:03:43.261Z,101683.69
2023-04-29T02:06:12.157Z,101693.06
2023-04-29T02:08:42.155Z,101699.22
2023-04-29T02:11:10.683Z,101689.94
2023-04-29T02:13:41.491Z,101689.19
2023-04-29T02:16:10.828Z,101695.84
2023-04-29T02:18:40.168Z,101701.03
2023-04-29T02:21:08.884Z,101714.22
2023-04-29T02:23:37.461Z,101711.81
2023-04-29T02:26:07.402Z,101718.13
2023-04-29T02:28:37.999Z,101715.88
2023-04-29T02:31:08.235Z,101720.63
2023-04-29T02:33:36.636Z,101730.69
2023-04-29T02:36:06.987Z,101732.59
2023-04-29T02:38:36.746Z,101732.16
2023-04-29T02:41:05.176Z,101730.47
2023-04-29T02:43:33.653Z,101736.00
2023-04-29T02:46:02.080Z,101731.03
2023-04-29T02:48:31.862Z,101738.63
2023-04-29T02:51:00.297Z,101746.13
2023-04-29T02:53:28.737Z,101740.41
2023-04-29T02:55:57.817Z,101745.66
2023-04-29T02:58:26.421Z,101744.16
2023-04-29T03:00:55.064Z,101738.41
2023-04-29T03:03:24.451Z,101751.97
2023-04-29T03:05:56.166Z,101747.66
2023-04-29T03:08:25.176Z,101764.16
2023-04-29T03:10:53.858Z,101758.41
2023-04-29T03:13:22.577Z,101765.34
2023-04-29T03:15:51.137Z,101764.78
2023-04-29T03:18:19.638Z,101774.88
2023-04-29T03:20:48.050Z,101773.38
2023-04-29T03:23:18.035Z,101774.53
2023-04-29T03:25:46.693Z,101771.34
2023-04-29T03:28:15.097Z,101784.69
2023-04-29T03:30:43.546Z,101783.47
2023-04-29T03:33:12.042Z,101787.41
2023-04-29T03:35:40.640Z,101788.63
2023-04-29T03:38:09.376Z,101777.44
2023-04-29T03:40:40.070Z,101792.19
2023-04-29T03:43:09.399Z,101789.50
2023-04-29T03:45:37.984Z,101792.75
2023-04-29T03:48:08.129Z,101787.59
2023-04-29T03:50:37.863Z,101785.19
2023-04-29T03:53:06.971Z,101798.72
2023-04-29T03:55:35.517Z,101798.66
2023-04-29T03:58:05.571Z,101798.66
2023-04-29T04:00:34.044Z,101797.91
2023-04-29T04:03:05.257Z,101813.34
2023-04-29T04:05:37.377Z,101809.88
2023-04-29T04:08:06.421Z,101808.63
2023-04-29T04:10:34.780Z,101807.69
2023-04-29T04:13:04.719Z,101800.94
2023-04-29T04:15:33.419Z,101807.91
2023-04-29T04:18:02.210Z,101809.41
2023-04-29T04:20:30.888Z,101819.03
2023-04-29T04:23:00.517Z,101811.13
2023-04-29T04:25:29.302Z,101822.44
2023-04-29T04:27:58.166Z,101835.28
2023-04-29T04:30:28.074Z,101830.25
2023-04-29T04:32:58.890Z,101835.75
2023-04-29T04:35:27.396Z,101835.72
2023-04-29T04:37:55.874Z,101831.69
2023-04-29T04:40:24.358Z,101840.00
2023-04-29T04:42:55.142Z,101836.47
2023-04-29T04:45:23.670Z,101834.94
2023-04-29T04:47:54.166Z,101839.84
2023-04-29T04:50:22.687Z,101848.00
2023-04-29T04:52:51.091Z,101854.88
2023-04-29T04:55:19.448Z,101856.56
2023-04-29T04:57:48.330Z,101858.22
2023-04-29T05:00:17.429Z,101867.84
2023-04-29T05:02:56.524Z,101874.31
2023-04-29T05:05:26.495Z,101868.66
2023-04-29T05:08:01.150Z,101879.50
2023-04-29T05:10:29.380Z,101880.31
2023-04-29T05:12:58.282Z,101878.00
2023-04-29T05:15:27.483Z,101886.31
2023-04-29T05:17:57.604Z,101891.06
2023-04-29T05:20:27.780Z,101890.31
2023-04-29T05:22:56.312Z,101895.97
2023-04-29T05:25:24.578Z,101889.19
2023-04-29T05:27:53.534Z,101904.13
2023-04-29T05:30:23.175Z,101905.06
2023-04-29T05:32:53.759Z,101895.53
2023-04-29T05:35:26.937Z,101892.66
2023-04-29T05:38:00.221Z,101905.78
2023-04-29T05:40:28.698Z,101909.72
2023-04-29T05:42:57.077Z,101911.00
2023-04-29T05:45:28.494Z,101912.56
2023-04-29T05:48:18.856Z,101910.50
2023-04-29T05:50:48.230Z,101913.66
2023-04-29T05:53:17.931Z,101924.59
2023-04-29T05:55:48.685Z,101926.28
2023-04-29T05:58:18.386Z,101923.53
2023-04-29T06:00:49.333Z,101931.91
2023-04-29T06:03:18.432Z,101939.81
2023-04-29T06:05:47.636Z,101944.72
2023-04-29T06:08:20.132Z,101932.84
2023-04-29T06:10:48.560Z,101947.56
2023-04-29T06:13:17.530Z,101950.28
2023-04-29T06:15:46.336Z,101953.97
2023-04-29T06:18:14.851Z,101954.53
2023-04-29T06:20:43.749Z,101950.56
2023-04-29T06:23:12.593Z,101961.59
2023-04-29T06:25:44.688Z,101967.75
2023-04-29T06:28:13.147Z,101977.16
2023-04-29T06:30:41.834Z,101972.31
2023-04-29T06:33:10.154Z,101962.81
2023-04-29T06:35:41.673Z,101977.13
2023-04-29T06:38:10.260Z,101973.19
2023-04-29T06:40:40.878Z,101965.28
2023-04-29T06:43:10.693Z,101983.53
2023-04-29T06:45:38.844Z,101989.91
2023-04-29T06:48:07.493Z,101991.03
2023-04-29T06:50:36.417Z,101992.69
2023-04-29T06:53:04.672Z,102005.19
2023-04-29T06:55:39.057Z,101993.72
2023-04-29T06:58:07.305Z,102002.16
2023-04-29T07:00:36.825Z,102010.59
2023-04-29T07:03:05.140Z,102012.59
2023-04-29T07:05:33.803Z,102019.31
2023-04-29T07:08:01.936Z,102022.69
2023-04-29T07:10:30.019Z,102026.63
2023-04-29T07:13:00.215Z,102022.78
2023-04-29T07:15:29.910Z,102028.56
2023-04-29T07:18:00.518Z,102027.81
2023-04-29T07:20:28.693Z,102034.34
2023-04-29T07:22:56.754Z,102039.00
2023-04-29T07:25:24.903Z,102040.06
2023-04-29T07:27:52.947Z,102047.28
2023-04-29T07:30:20.956Z,102050.97
2023-04-29T07:32:48.980Z,102049.16
2023-04-29T07:35:18.569Z,102058.31
2023-04-29T07:37:46.670Z,102055.25
2023-04-29T07:40:14.685Z,102051.53
2023-04-29T07:42:42.806Z,102049.81
2023-04-29T07:45:11.671Z,102055.28
2023-04-29T07:47:39.927Z,102052.25
2023-04-29T07:50:11.675Z,102064.69
2023-04-29T07:52:41.400Z,102064.28
2023-04-29T07:55:10.770Z,102068.75
2023-04-29T07:57:38.890Z,102070.34
2023-04-29T08:00:10.987Z,102080.78
2023-04-29T08:02:42.706Z,102073.63
2023-04-29T08:05:11.668Z,102088.72
2023-04-29T08:07:41.423Z,102088.28
2023-04-29T08:10:11.197Z,102095.16
2023-04-29T08:12:39.460Z,102095.25
2023-04-29T08:15:09.915Z,102095.56
2023-04-29T08:17:38.371Z,102099.31
2023-04-29T08:20:08.491Z,102102.72
2023-04-29T08:22:36.603Z,102096.69
2023-04-29T08:25:07.616Z,102111.53
2023-04-29T08:27:36.110Z,102108.94
2023-04-29T08:30:04.909Z,102110.53
2023-04-29T08:32:34.244Z,102114.94
2023-04-29T08:35:05.668Z,102116.84
2023-04-29T08:37:33.898Z,102118.56
2023-04-29T08:40:02.126Z,102121.22
2023-04-29T08:42:36.288Z,102112.22
2023-04-29T08:45:06.211Z,102131.09
2023-04-29T08:47:35.386Z,102118.28
2023-04-29T08:50:05.877Z,102123.78
2023-04-29T08:52:34.622Z,102141.03
2023-04-29T08:55:03.633Z,102135.06
2023-04-29T08:57:39.485Z,102134.84
2023-04-29T09:00:10.846Z,102131.50
2023-04-29T09:02:46.078Z,102138.25
2023-04-29T09:05:14.636Z,102140.28
2023-04-29T09:07:43.729Z,102144.81
2023-04-29T09:10:13.045Z,102149.19
2023-04-29T09:12:42.622Z,102147.63
2023-04-29T09:15:11.912Z,102148.16
2023-04-29T09:17:42.584Z,102156.16
2023-04-29T09:20:32.792Z,102155.38
2023-04-29T09:23:03.593Z,102155.28
2023-04-29T09:25:33.538Z,102153.66
2023-04-29T09:28:17.705Z,102156.00
2023-04-29T09:30:50.608Z,102158.81
2023-04-29T09:33:18.893Z,102157.72
2023-04-29T09:35:48.715Z,102155.81
2023-04-29T09:38:17.640Z,102151.56
2023-04-29T09:40:57.629Z,102156.47
2023-04-29T09:43:28.431Z,102162.22
2023-04-29T09:45:57.273Z,102156.13
2023-04-29T09:48:33.656Z,102169.72
2023-04-29T09:51:04.095Z,102164.38
2023-04-29T09:53:33.296Z,102169.59
2023-04-29T09:56:03.816Z,102176.84
2023-04-29T09:58:37.680Z,102178.59
2023-04-29T10:01:08.206Z,102174.13
2023-04-29T10:03:38.630Z,102173.50
2023-04-29T10:06:08.696Z,102174.34
2023-04-29T10:08:36.985Z,102173.72
2023-04-29T10:11:06.266Z,102177.97
2023-04-29T10:13:38.462Z,102178.94
2023-04-29T10:16:21.350Z,102179.56
2023-04-29T10:18:57.556Z,102186.00
2023-04-29T10:21:32.287Z,102180.97
2023-04-29T10:24:06.830Z,102176.09
2023-04-29T10:26:40.230Z,102186.16
2023-04-29T10:29:10.834Z,102182.16
2023-04-29T10:31:41.110Z,102176.94
2023-04-29T10:34:09.645Z,102179.38
2023-04-29T10:36:39.330Z,102188.13
2023-04-29T10:39:13.765Z,102183.03
2023-04-29T10:41:47.098Z,102187.66
2023-04-29T10:44:19.878Z,102189.56
2023-04-29T10:47:28.490Z,102183.88
2023-04-29T10:50:08.162Z,102186.00
2023-04-29T10:52:55.984Z,102180.47
2023-04-29T10:55:26.361Z,102186.72
2023-04-29T10:57:57.188Z,102177.16
2023-04-29T11:00:29.114Z,102184.66
2023-04-29T11:02:58.386Z,102179.59
2023-04-29T11:05:33.075Z,102184.81
2023-04-29T11:08:13.072Z,102179.75
2023-04-29T11:10:45.295Z,102173.69
2023-04-29T11:13:26.483Z,102172.50
2023-04-29T11:16:12.974Z,102172.63
2023-04-29T11:19:06.650Z,102179.34
2023-04-29T11:21:37.187Z,102180.97
2023-04-29T11:24:09.176Z,102178.63
2023-04-29T11:26:40.156Z,102183.00
2023-04-29T11:29:16.178Z,102174.03
2023-04-29T11:31:47.642Z,102182.09
2023-04-29T11:34:18.194Z,102187.38
2023-04-29T11:36:47.666Z,102186.53
2023-04-29T11:39:20.199Z,102183.41
2023-04-29T11:41:49.669Z,102190.53
2023-04-29T11:44:23.981Z,102196.34
2023-04-29T11:46:56.914Z,102194.34
2023-04-29T11:49:32.454Z,102187.47
2023-04-29T11:52:01.248Z,102195.50
2023-04-29T11:54:30.581Z,102203.41
2023-04-29T11:57:00.181Z,102190.25
2023-04-29T11:59:29.550Z,102200.47
2023-04-29T12:02:00.700Z,102205.25
2023-04-29T12:04:29.229Z,102204.59
2023-04-29T12:06:59.878Z,102204.94
2023-04-29T12:09:28.400Z,102204.31
2023-04-29T12:11:57.065Z,102208.38
2023-04-29T12:14:25.996Z,102198.88
2023-04-29T12:16:56.084Z,102197.94
2023-04-29T12:19:27.154Z,102203.44
2023-04-29T12:21:55.518Z,102207.69
2023-04-29T12:24:24.199Z,102205.72
2023-04-29T12:26:53.928Z,102213.97
2023-04-29T12:29:26.198Z,102214.59
2023-04-29T12:31:54.620Z,102220.38
2023-04-29T12:34:29.498Z,102212.25
2023-04-29T12:36:59.008Z,102207.09
2023-04-29T12:39:29.061Z,102207.38
2023-04-29T12:42:00.400Z,102211.06
2023-04-29T12:44:36.503Z,102216.78
2023-04-29T12:47:10.958Z,102223.63
2023-04-29T12:49:44.054Z,102211.16
2023-04-29T12:52:13.024Z,102213.25
2023-04-29T12:54:43.568Z,102218.66
2023-04-29T12:57:14.427Z,102228.25
2023-04-29T12:59:44.003Z,102216.06
2023-04-29T13:02:12.455Z,102210.09
2023-04-29T13:04:50.727Z,102218.16
2023-04-29T13:07:19.396Z,102212.47
2023-04-29T13:09:47.715Z,102216.75
2023-04-29T13:12:16.898Z,102215.28
2023-04-29T13:14:45.775Z,102223.13
2023-04-29T13:17:14.894Z,102216.03
2023-04-29T13:19:51.587Z,102209.47
2023-04-29T13:22:20.730Z,102219.50
2023-04-29T13:24:49.313Z,102210.84
2023-04-29T13:27:17.780Z,102220.50
2023-04-29T13:29:46.041Z,102224.34
2023-04-29T13:32:14.329Z,102221.97
2023-04-29T13:34:45.151Z,102233.00
2023-04-29T13:37:13.662Z,102221.66
2023-04-29T13:39:45.671Z,102222.53
2023-04-29T13:42:15.526Z,102219.88
2023-04-29T13:44:52.200Z,102226.50
2023-04-29T13:47:25.962Z,102226.00
2023-04-29T13:55:44.014Z,102232.78
2023-04-29T13:58:37.207Z,102220.78
2023-04-29T14:01:05.962Z,102236.03
2023-04-29T14:03:28.497Z,102230.06
2023-04-29T14:05:59.239Z,102237.50
2023-04-29T14:08:27.651Z,102233.19
2023-04-29T14:10:55.974Z,102244.59
2023-04-29T14:13:24.759Z,102245.78
2023-04-29T14:15:54.412Z,102253.50
2023-04-29T14:18:22.923Z,102251.31
2023-04-29T14:20:51.304Z,102254.47
2023-04-29T14:23:21.676Z,102251.00
2023-04-29T14:25:50.032Z,102262.84
2023-04-29T14:28:18.324Z,102245.56
2023-04-29T14:30:47.091Z,102253.63
2023-04-29T14:33:15.554Z,102251.22
2023-04-29T14:35:43.870Z,102256.78
2023-04-29T14:38:12.123Z,102252.50
2023-04-29T14:40:41.847Z,102250.19
2023-04-29T14:43:10.165Z,102256.81
2023-04-29T14:45:38.440Z,102258.44
2023-04-29T14:48:07.975Z,102251.06
2023-04-29T14:50:36.638Z,102253.75
2023-04-29T14:53:04.994Z,102251.88
2023-04-29T14:55:34.901Z,102251.19
2023-04-29T14:58:05.086Z,102266.44
2023-04-29T15:00:33.697Z,102256.81
2023-04-29T15:03:03.678Z,102261.19
2023-04-29T15:05:32.592Z,102261.56
2023-04-29T15:08:02.320Z,102265.91
2023-04-29T15:10:30.965Z,102259.56
2023-04-29T15:12:59.319Z,102269.53
2023-04-29T15:15:29.969Z,102264.84
2023-04-29T15:17:58.663Z,102268.50
2023-04-29T15:20:27.545Z,102263.69
2023-04-29T15:22:55.962Z,102273.31
2023-04-29T15:25:26.599Z,102275.72
2023-04-29T15:27:56.042Z,102271.44
2023-04-29T15:30:25.056Z,102272.97
2023-04-29T15:32:57.610Z,102277.13
2023-04-29T15:35:26.220Z,102280.19
2023-04-29T15:37:54.888Z,102271.00
2023-04-29T15:40:23.536Z,102268.16
2023-04-29T15:42:51.894Z,102270.91
2023-04-29T15:45:20.305Z,102265.38
2023-04-29T15:47:48.804Z,102277.09
2023-04-29T15:50:18.479Z,102272.81
2023-04-29T15:52:47.152Z,102282.94
2023-04-29T15:55:16.684Z,102278.50
2023-04-29T15:57:45.148Z,102285.72
2023-04-29T16:00:14.560Z,102278.22
2023-04-29T16:02:43.507Z,102287.75
2023-04-29T16:05:12.029Z,102290.00
2023-04-29T16:07:42.004Z,102292.78
2023-04-29T16:10:11.889Z,102291.75
2023-04-29T16:12:40.125Z,102296.72
2023-04-29T16:15:10.550Z,102300.44
2023-04-29T16:17:38.879Z,102306.81
2023-04-29T16:20:11.706Z,102303.28
2023-04-29T16:22:41.561Z,102303.69
2023-04-29T16:25:11.437Z,102297.91
2023-04-29T16:27:41.048Z,102306.28
2023-04-29T16:30:11.152Z,102296.16
2023-04-29T16:32:41.485Z,102298.81
2023-04-29T16:35:11.312Z,102307.41
2023-04-29T16:37:40.956Z,102311.53
2023-04-29T16:40:11.385Z,102310.41
2023-04-29T16:42:40.273Z,102311.22
2023-04-29T16:45:12.435Z,102311.03
2023-04-29T16:47:41.451Z,102312.41
2023-04-29T16:50:11.567Z,102317.09
2023-04-29T16:52:41.474Z,102312.84
2023-04-29T16:55:12.019Z,102314.38
2023-04-29T16:57:40.537Z,102321.09
2023-04-29T17:00:12.231Z,102321.63
2023-04-29T17:02:43.351Z,102320.69
2023-04-29T17:05:12.065Z,102324.41
2023-04-29T17:07:42.454Z,102323.28
2023-04-29T17:10:11.593Z,102317.09
2023-04-29T17:12:40.863Z,102320.13
2023-04-29T17:15:10.545Z,102328.19
2023-04-29T17:17:40.078Z,102319.22
2023-04-29T17:20:10.419Z,102326.75
2023-04-29T17:22:38.722Z,102328.69
2023-04-29T17:25:10.423Z,102324.94
2023-04-29T17:27:38.980Z,102329.00
2023-04-29T17:30:09.544Z,102322.22
2023-04-29T17:32:39.357Z,102334.16
2023-04-29T17:35:09.810Z,102335.25
2023-04-29T17:37:38.244Z,102328.16
2023-04-29T17:40:10.762Z,102318.22
2023-04-29T17:42:39.186Z,102320.38
2023-04-29T17:45:11.653Z,102330.28
2023-04-29T17:47:41.477Z,102320.47
2023-04-29T17:50:15.134Z,102332.25
2023-04-29T17:52:44.095Z,102329.38
2023-04-29T17:55:13.731Z,102328.03
2023-04-29T17:57:42.246Z,102325.00
2023-04-29T18:00:12.890Z,102332.00
2023-04-29T18:02:41.351Z,102323.59
2023-04-29T18:05:10.309Z,102322.69
2023-04-29T18:07:39.080Z,102328.47
2023-04-29T18:10:09.618Z,102332.97
2023-04-29T18:12:39.721Z,102342.06
2023-04-29T18:15:10.604Z,102336.47
2023-04-29T18:17:40.000Z,102330.78
2023-04-29T18:20:10.148Z,102331.06
2023-04-29T18:22:38.477Z,102329.56
2023-04-29T18:25:11.149Z,102343.66
2023-04-29T18:27:42.468Z,102339.75
2023-04-29T18:30:12.222Z,102350.13
2023-04-29T18:32:42.132Z,102342.53
2023-04-29T18:35:11.737Z,102337.25
2023-04-29T18:37:40.167Z,102345.38
2023-04-29T18:40:10.511Z,102351.88
2023-04-29T18:42:40.600Z,102357.31
2023-04-29T18:45:11.057Z,102359.41
2023-04-29T18:47:39.553Z,102356.00
2023-04-29T18:50:09.999Z,102353.38
2023-04-29T18:52:40.003Z,102356.44
2023-04-29T18:55:18.926Z,102363.06
2023-04-29T18:57:48.695Z,102367.72
2023-04-29T19:00:17.860Z,102368.72
2023-04-29T19:02:46.481Z,102371.13
2023-04-29T19:05:15.010Z,102370.31
2023-04-29T19:07:44.083Z,102377.34
2023-04-29T19:10:25.599Z,102372.31
2023-04-29T19:12:55.465Z,102370.50
2023-04-29T19:15:25.477Z,102373.31
2023-04-29T19:17:58.599Z,102375.88
2023-04-29T19:20:27.918Z,102371.28
2023-04-29T19:22:56.826Z,102380.97
2023-04-29T19:25:26.072Z,102379.25
2023-04-29T19:27:59.934Z,102386.56
2023-04-29T19:30:28.405Z,102384.81
2023-04-29T19:32:57.110Z,102387.97
2023-04-29T19:35:34.219Z,102394.84
2023-04-29T19:38:02.439Z,102392.19
2023-04-29T19:40:31.041Z,102394.31
2023-04-29T19:43:01.045Z,102384.69
2023-04-29T19:45:30.205Z,102391.94
2023-04-29T19:48:01.889Z,102394.84
2023-04-29T19:50:34.297Z,102395.81
2023-04-29T19:53:05.830Z,102406.88
2023-04-29T19:55:34.995Z,102398.00
2023-04-29T19:58:07.153Z,102410.47
2023-04-29T20:00:36.600Z,102409.16
2023-04-29T20:03:06.130Z,102405.22
2023-04-29T20:05:36.442Z,102411.03
2023-04-29T20:08:10.670Z,102416.22
2023-04-29T20:10:42.878Z,102403.28
2023-04-29T20:13:14.068Z,102411.06
2023-04-29T20:15:43.064Z,102412.09
2023-04-29T20:18:12.578Z,102404.94
2023-04-29T20:20:43.773Z,102413.44
2023-04-29T20:23:12.962Z,102414.22
2023-04-29T20:25:41.882Z,102417.69
2023-04-29T20:28:12.742Z,102423.91
2023-04-29T20:30:43.156Z,102428.00
2023-04-29T20:33:13.965Z,102426.72
2023-04-29T20:35:42.801Z,102424.97
2023-04-29T20:38:13.002Z,102425.31
2023-04-29T20:40:43.865Z,102437.69
2023-04-29T20:43:15.181Z,102433.69
2023-04-29T20:45:51.469Z,102442.44
2023-04-29T20:48:22.600Z,102430.06
2023-04-29T20:50:55.280Z,102434.72
2023-04-29T20:53:26.200Z,102433.69
2023-04-29T20:55:56.770Z,102433.56
2023-04-29T20:58:25.716Z,102438.06
2023-04-29T21:00:57.882Z,102445.00
2023-04-29T21:03:26.787Z,102440.50
2023-04-29T21:05:58.715Z,102440.81
2023-04-29T21:08:30.025Z,102443.25
2023-04-29T21:11:00.025Z,102445.53
2023-04-29T21:13:29.155Z,102455.75
2023-04-29T21:16:03.960Z,102439.28
2023-04-29T21:18:35.601Z,102453.06
2023-04-29T21:21:09.820Z,102444.28
2023-04-29T21:23:38.907Z,102440.41
2023-04-29T21:26:10.214Z,102444.53
2023-04-29T21:28:40.276Z,102450.94
2023-04-29T21:31:19.947Z,102455.41
2023-04-29T21:33:50.688Z,102447.91
2023-04-29T21:36:23.506Z,102453.34
2023-04-29T21:38:57.426Z,102457.38
2023-04-29T21:41:32.801Z,102460.47
2023-04-29T21:44:09.774Z,102444.16
2023-04-29T21:46:41.146Z,102453.03
2023-04-29T21:49:10.936Z,102445.53
2023-04-29T21:51:39.962Z,102459.56
2023-04-29T21:54:09.586Z,102460.91
2023-04-29T21:56:38.418Z,102457.75
2023-04-29T21:59:10.184Z,102467.38
2023-04-29T22:02:00.743Z,102469.69
2023-04-29T22:04:29.462Z,102456.19
2023-04-29T22:06:59.624Z,102457.44
2023-04-29T22:09:28.093Z,102451.09
2023-04-29T22:11:58.080Z,102455.25
2023-04-29T22:14:27.204Z,102462.38
2023-04-29T22:17:00.052Z,102463.31
2023-04-29T22:19:30.318Z,102463.25
2023-04-29T22:21:58.963Z,102458.97
2023-04-29T22:24:30.268Z,102462.56
2023-04-29T22:27:06.773Z,102451.94
2023-04-29T22:29:38.198Z,102455.28
2023-04-29T22:32:08.615Z,102463.97
2023-04-29T22:34:37.150Z,102456.25
2023-04-29T22:37:05.489Z,102468.88
2023-04-29T22:39:34.159Z,102463.53
2023-04-29T22:42:02.946Z,102464.59
2023-04-29T22:44:31.395Z,102465.41
2023-04-29T22:46:59.981Z,102474.41
2023-04-29T22:49:29.866Z,102460.50
2023-04-29T22:51:58.410Z,102471.44
2023-04-29T22:54:26.852Z,102476.53
2023-04-29T22:56:55.151Z,102467.78
2023-04-29T22:59:23.429Z,102473.34
2023-04-29T23:01:52.389Z,102467.56
2023-04-29T23:04:22.737Z,102474.41
2023-04-29T23:06:52.897Z,102478.41
2023-04-29T23:09:21.322Z,102473.81
2023-04-29T23:11:51.949Z,102472.41
2023-04-29T23:14:22.863Z,102466.94
2023-04-29T23:16:51.378Z,102469.75
2023-04-29T23:19:19.676Z,102477.75
2023-04-29T23:21:47.904Z,102481.56
2023-04-29T23:24:17.932Z,102478.78
2023-04-29T23:26:46.336Z,102467.56
2023-04-29T23:29:16.014Z,102480.88
2023-04-29T23:31:48.056Z,102479.63
2023-04-29T23:34:18.392Z,102484.56
2023-04-29T23:36:47.241Z,102478.59
2023-04-29T23:39:17.647Z,102485.06
2023-04-29T23:41:46.450Z,102487.50
2023-04-29T23:44:14.751Z,102486.63
2023-04-29T23:46:43.349Z,102492.16
2023-04-29T23:49:11.885Z,102494.72
2023-04-29T23:51:40.271Z,102498.63
2023-04-29T23:54:08.628Z,102496.84
2023-04-29T23:56:38.642Z,102492.72
2023-04-29T23:59:07.003Z,102490.03
